Time;durP1;ratioP1;P1;durP2;ratioP2;P2;SDS_P1;SDS_P2;PMS_P1;PMS_P2;Temp;Humidity;BMP_temperature;BMP_pressure;BME280_temperature;BME280_humidity;BME280_pressure;Samples;Min_cycle;Max_cycle;Signal;HPM_P1;HPM_P2
2023/02/23 00:01:24;;;;;;;66.43;41.15;;;230.40;2252.80;;;;;;5032362;28;20380;-64
2023/02/23 00:03:50;;;;;;;66.65;37.92;;;205.70;2252.80;;;;;;5032457;28;20365;-67
2023/02/23 00:06:17;;;;;;;41.80;23.67;;;205.50;2252.80;;;;;;5032135;28;20026;-64
2023/02/23 00:08:46;;;;;;;41.20;24.13;;;205.30;2252.80;;;;;;5032274;28;20435;-64
2023/02/23 00:11:13;;;;;;;41.28;26.55;;;205.70;2252.80;;;;;;5032009;28;20095;-65
2023/02/23 00:13:41;;;;;;;152.48;88.78;;;205.30;2252.80;;;;;;5032206;28;20036;-66
2023/02/23 00:16:11;;;;;;;49.97;30.00;;;205.40;2252.80;;;;;;5032183;28;20022;-64
2023/02/23 00:18:43;;;;;;;105.47;57.75;;;205.20;2252.80;;;;;;5032240;28;20029;-66
2023/02/23 00:21:15;;;;;;;39.05;25.27;;;205.30;2252.80;;;;;;5032195;28;20411;-63
2023/02/23 00:23:42;;;;;;;36.40;21.17;;;205.20;2252.80;;;;;;5032067;28;20392;-65
2023/02/23 00:26:08;;;;;;;46.42;30.13;;;205.10;2252.80;;;;;;5031846;28;20085;-66
2023/02/23 00:28:34;;;;;;;52.17;33.08;;;204.90;2252.80;;;;;;5031595;28;20029;-64
2023/02/23 00:31:03;;;;;;;127.18;77.70;;;205.10;2252.80;;;;;;5031923;28;20478;-65
2023/02/23 00:33:29;;;;;;;97.47;58.47;;;205.10;2252.80;;;;;;5031658;28;20483;-64
2023/02/23 00:35:55;;;;;;;44.17;30.75;;;205.10;2252.80;;;;;;5031832;28;20369;-65
2023/02/23 00:38:20;;;;;;;32.47;21.48;;;205.00;2252.80;;;;;;5031825;28;20032;-64
2023/02/23 00:40:46;;;;;;;107.63;63.55;;;204.90;2252.80;;;;;;5031537;28;20475;-66
2023/02/23 00:43:14;;;;;;;183.07;112.03;;;204.90;2252.80;;;;;;5031399;28;20033;-68
2023/02/23 00:45:39;;;;;;;77.55;46.70;;;204.90;2252.80;;;;;;5031550;28;20091;-67
2023/02/23 00:48:09;;;;;;;27.58;19.42;;;205.00;2252.80;;;;;;5031382;28;20025;-66
2023/02/23 00:50:37;;;;;;;40.22;27.10;;;204.80;2252.80;;;;;;5031355;28;20021;-66
2023/02/23 00:53:03;;;;;;;35.28;22.75;;;204.80;2252.80;;;;;;5031149;28;20017;-64
2023/02/23 00:55:29;;;;;;;26.02;18.73;;;204.80;2252.80;;;;;;5031426;28;20025;-66
2023/02/23 00:57:57;;;;;;;34.35;20.17;;;180.10;2252.80;;;;;;5031037;28;20025;-66
2023/02/23 01:00:24;;;;;;;79.00;48.78;;;179.90;2252.80;;;;;;5031196;28;20112;-65
2023/02/23 01:02:50;;;;;;;29.67;20.45;;;179.90;2252.80;;;;;;5031352;28;20048;-67
2023/02/23 01:05:16;;;;;;;27.92;18.98;;;180.00;2252.80;;;;;;5031013;28;20072;-66
2023/02/23 01:07:45;;;;;;;46.60;28.85;;;180.00;2252.80;;;;;;5031345;28;20105;-65
2023/02/23 01:10:20;;;;;;;25.80;18.42;;;180.00;2252.80;;;;;;5030747;28;20031;-66
2023/02/23 01:12:48;;;;;;;52.25;29.55;;;180.10;2252.80;;;;;;5030698;28;20480;-63
2023/02/23 01:15:14;;;;;;;39.22;25.52;;;180.10;2252.80;;;;;;5031080;28;20044;-64
2023/02/23 01:17:41;;;;;;;58.63;36.10;;;204.80;2252.80;;;;;;5031042;28;20043;-65
2023/02/23 01:20:18;;;;;;;49.83;32.05;;;180.10;2252.80;;;;;;5030956;28;20013;-64
2023/02/23 01:22:50;;;;;;;76.05;43.70;;;180.00;2252.80;;;;;;5030809;28;20025;-67
2023/02/23 01:25:17;;;;;;;52.00;29.50;;;179.70;2252.80;;;;;;5030574;28;20391;-67
2023/02/23 01:27:44;;;;;;;34.75;22.95;;;179.80;2252.80;;;;;;5030683;28;20029;-63
2023/02/23 01:30:12;;;;;;;31.33;22.38;;;179.90;2252.80;;;;;;5030718;28;20025;-66
2023/02/23 01:32:38;;;;;;;39.88;26.77;;;179.70;2252.80;;;;;;5030406;28;20105;-66
2023/02/23 01:35:09;;;;;;;58.97;38.55;;;179.60;2252.80;;;;;;5030661;28;20025;-65
2023/02/23 01:37:37;;;;;;;42.42;28.25;;;179.60;2252.80;;;;;;5030312;28;20018;-66
2023/02/23 01:43:15;;;;;;;67.05;41.42;;;179.60;2252.80;;;;;;4988684;28;20096;-67
2023/02/23 01:45:43;;;;;;;41.95;27.42;;;179.60;2252.80;;;;;;5003515;28;20046;-65
2023/02/23 01:48:15;;;;;;;42.75;26.27;;;179.50;2252.80;;;;;;5028455;28;20037;-65
2023/02/23 01:51:01;;;;;;;62.08;37.38;;;179.40;2252.80;;;;;;5028291;28;20030;-66
2023/02/23 01:53:32;;;;;;;47.22;31.80;;;179.40;2252.80;;;;;;5028242;28;20439;-67
2023/02/23 01:56:04;;;;;;;30.27;18.52;;;179.40;2252.80;;;;;;5028314;28;20056;-64
2023/02/23 01:58:32;;;;;;;29.15;19.73;;;179.30;2252.80;;;;;;5028485;28;20025;-63
2023/02/23 02:01:02;;;;;;;36.20;23.10;;;179.30;2252.80;;;;;;5028263;28;20045;-64
2023/02/23 02:03:33;;;;;;;47.85;28.35;;;154.50;2252.80;;;;;;5028195;28;20514;-67
2023/02/23 02:06:01;;;;;;;32.22;20.90;;;179.40;2252.80;;;;;;5028171;28;20064;-65
2023/02/23 02:08:32;;;;;;;33.80;22.27;;;179.30;2252.80;;;;;;5028349;28;20021;-66
2023/02/23 02:10:58;;;;;;;81.05;46.60;;;154.00;2252.80;;;;;;5032655;28;20072;-65
2023/02/23 02:13:30;;;;;;;78.28;44.83;;;179.40;2252.80;;;;;;5033093;28;20495;-66
2023/02/23 02:16:26;;;;;;;28.60;19.13;;;179.40;2252.80;;;;;;5033490;28;20547;-66
2023/02/23 02:19:24;;;;;;;32.58;20.33;;;179.20;2252.80;;;;;;5036356;28;20045;-63
2023/02/23 02:22:07;;;;;;;25.55;17.98;;;179.20;2252.80;;;;;;4955216;29;20133;-68
2023/02/23 02:24:46;;;;;;;74.93;44.67;;;154.50;2252.80;;;;;;4949793;28;20426;-67
2023/02/23 02:27:33;;;;;;;158.15;86.53;;;179.20;2252.80;;;;;;4950233;29;20042;-65
2023/02/23 02:30:24;;;;;;;53.42;29.55;;;179.20;2252.80;;;;;;4950226;29;20027;-66
2023/02/23 02:33:02;;;;;;;37.15;22.27;;;154.50;2252.80;;;;;;4950090;29;20079;-64
2023/02/23 02:35:36;;;;;;;29.90;19.10;;;154.40;2252.80;;;;;;4949850;29;20035;-67
2023/02/23 02:38:17;;;;;;;32.58;20.42;;;154.50;2252.80;;;;;;4950192;29;20031;-67
2023/02/23 02:40:56;;;;;;;34.97;20.65;;;179.20;2252.80;;;;;;4949976;29;20471;-65
2023/02/23 02:44:01;;;;;;;28.67;17.58;;;179.30;2252.80;;;;;;4949956;28;20038;-63
2023/02/23 02:46:33;;;;;;;27.42;16.42;;;179.20;2252.80;;;;;;4934118;29;20048;-65
2023/02/23 02:49:12;;;;;;;25.25;18.45;;;154.50;2252.80;;;;;;4934451;29;20134;-68
2023/02/23 02:51:51;;;;;;;26.55;17.80;;;154.50;2252.80;;;;;;4934331;29;20050;-63
2023/02/23 02:54:46;;;;;;;36.92;25.45;;;179.20;2252.80;;;;;;4934075;29;20123;-64
2023/02/23 02:57:13;;;;;;;43.47;28.80;;;179.40;2252.80;;;;;;4938158;28;20027;-65
2023/02/23 04:17:43;;;;;;;25.30;17.38;;;154.20;2252.80;;;;;;5052296;28;20581;-65
2023/02/23 04:20:11;;;;;;;31.98;19.23;;;154.00;2252.80;;;;;;5052102;28;20032;-63
2023/02/23 04:22:37;;;;;;;28.98;19.70;;;153.90;2252.80;;;;;;5051928;28;20116;-68
2023/02/23 04:25:04;;;;;;;31.17;19.67;;;154.10;2252.80;;;;;;5051900;28;20116;-63
2023/02/23 04:27:30;;;;;;;27.00;18.45;;;154.20;2252.80;;;;;;5051900;28;20021;-67
2023/02/23 04:29:56;;;;;;;24.15;18.23;;;154.20;2252.80;;;;;;5051854;28;20028;-66
2023/02/23 04:32:22;;;;;;;25.92;18.58;;;154.30;2252.80;;;;;;5051799;28;20029;-65
2023/02/23 04:34:48;;;;;;;31.27;23.63;;;154.40;2252.80;;;;;;5051887;28;20064;-69
2023/02/23 04:37:14;;;;;;;23.38;17.63;;;154.30;2252.80;;;;;;5051718;28;20021;-64
2023/02/23 04:39:41;;;;;;;23.30;16.23;;;154.40;2252.80;;;;;;5051888;28;20497;-67
2023/02/23 04:42:08;;;;;;;23.20;18.40;;;154.00;2252.80;;;;;;5051350;28;20387;-68
2023/02/23 04:44:34;;;;;;;25.42;18.42;;;154.10;2252.80;;;;;;5051463;28;20402;-68
2023/02/23 04:47:00;;;;;;;22.73;16.48;;;154.00;2252.80;;;;;;5033174;28;20138;-63
2023/02/23 04:49:26;;;;;;;25.48;18.10;;;154.10;2252.80;;;;;;5031686;28;20396;-64
2023/02/23 04:51:52;;;;;;;29.90;17.90;;;154.10;2252.80;;;;;;5031519;28;20434;-64
2023/02/23 04:54:17;;;;;;;26.20;17.33;;;153.80;2252.80;;;;;;5031554;28;20104;-64
2023/02/23 04:56:43;;;;;;;25.33;17.55;;;153.80;2252.80;;;;;;5031318;28;20040;-66
2023/02/23 04:59:09;;;;;;;28.00;18.30;;;153.90;2252.80;;;;;;5031270;28;20116;-65
2023/02/23 05:01:36;;;;;;;29.08;19.10;;;153.90;2252.80;;;;;;5031254;28;20051;-63
2023/02/23 05:04:01;;;;;;;25.55;18.17;;;153.90;2252.80;;;;;;5031322;28;20537;-66
2023/02/23 05:06:27;;;;;;;25.42;18.23;;;154.00;2252.80;;;;;;5031114;28;20025;-67
2023/02/23 05:08:53;;;;;;;25.52;17.40;;;154.00;2252.80;;;;;;5030637;28;20026;-64
2023/02/23 05:11:19;;;;;;;24.90;17.00;;;154.00;2252.80;;;;;;5031267;28;20029;-66
2023/02/23 05:13:44;;;;;;;26.90;17.70;;;154.00;2252.80;;;;;;5030973;28;20076;-65
2023/02/23 05:16:10;;;;;;;24.15;17.52;;;154.00;2252.80;;;;;;5031244;28;20021;-66
2023/02/23 05:18:36;;;;;;;23.52;16.73;;;154.00;2252.80;;;;;;5030947;28;20498;-67
2023/02/23 05:21:05;;;;;;;27.13;16.50;;;153.90;2252.80;;;;;;5030979;28;20029;-65
2023/02/23 05:23:31;;;;;;;25.65;15.95;;;153.80;2252.80;;;;;;5031057;28;20068;-64
2023/02/23 05:26:03;;;;;;;28.10;19.77;;;154.20;2252.80;;;;;;5031023;28;20048;-65
2023/02/23 05:28:29;;;;;;;25.38;17.52;;;154.20;2252.80;;;;;;5030926;28;20022;-64
2023/02/23 05:30:55;;;;;;;27.35;17.48;;;154.10;2252.80;;;;;;5030720;28;20057;-65
2023/02/23 05:33:20;;;;;;;25.30;16.88;;;154.20;2252.80;;;;;;5030980;28;20075;-65
2023/02/23 05:35:47;;;;;;;22.90;16.85;;;154.30;2252.80;;;;;;5030814;28;20025;-68
2023/02/23 05:38:13;;;;;;;27.13;17.48;;;154.40;2252.80;;;;;;5030721;28;20033;-66
2023/02/23 05:40:39;;;;;;;23.58;15.82;;;154.40;2252.80;;;;;;5030690;28;20103;-66
2023/02/23 05:43:05;;;;;;;21.98;17.05;;;154.50;2252.80;;;;;;5030453;28;20029;-68
2023/02/23 05:45:32;;;;;;;32.80;17.40;;;179.20;2252.80;;;;;;5030382;28;20053;-66
2023/02/23 05:47:58;;;;;;;27.05;17.88;;;179.20;2252.80;;;;;;5030591;28;20024;-66
2023/02/23 05:50:24;;;;;;;30.35;17.60;;;154.40;2252.80;;;;;;5030488;28;20108;-66
2023/02/23 05:52:49;;;;;;;24.52;17.15;;;154.20;2252.80;;;;;;5055534;28;20017;-65
2023/02/23 05:55:15;;;;;;;20.77;16.13;;;154.10;2252.80;;;;;;5070136;28;20082;-64
2023/02/23 05:57:41;;;;;;;23.40;16.70;;;154.00;2252.80;;;;;;5070468;28;20050;-68
2023/02/23 06:00:09;;;;;;;24.65;19.05;;;153.90;2252.80;;;;;;5070084;28;20467;-67
2023/02/23 06:02:35;;;;;;;26.70;18.55;;;154.00;2252.80;;;;;;5070032;28;20056;-68
2023/02/23 06:05:01;;;;;;;26.92;20.50;;;154.20;2252.80;;;;;;5070425;28;20094;-64
2023/02/23 06:07:26;;;;;;;28.05;18.10;;;154.20;2252.80;;;;;;5070053;28;20052;-66
2023/02/23 06:09:52;;;;;;;29.13;18.42;;;154.10;2252.80;;;;;;5070263;28;20035;-64
2023/02/23 06:12:18;;;;;;;27.77;19.33;;;154.10;2252.80;;;;;;5070175;28;20421;-67
2023/02/23 06:14:44;;;;;;;28.70;20.67;;;154.20;2252.80;;;;;;5070162;28;20383;-65
2023/02/23 06:17:10;;;;;;;28.65;19.77;;;154.40;2252.80;;;;;;5070241;28;20106;-67
2023/02/23 06:19:35;;;;;;;32.90;22.42;;;179.40;2252.80;;;;;;5072676;28;20036;-65
2023/02/23 06:22:01;;;;;;;36.83;22.65;;;179.80;2252.80;;;;;;5074322;28;20031;-68
2023/02/23 06:24:27;;;;;;;35.85;26.38;;;180.10;2252.80;;;;;;5073981;28;20509;-67
2023/02/23 06:26:53;;;;;;;41.58;29.42;;;205.00;2252.80;;;;;;5074093;28;20024;-68
2023/02/23 06:29:18;;;;;;;117.22;82.63;;;205.20;2252.80;;;;;;5074165;28;20032;-66
2023/02/23 06:31:44;;;;;;;56.03;37.47;;;205.40;2252.80;;;;;;5073878;28;20043;-65
2023/02/23 06:34:10;;;;;;;51.20;31.85;;;205.60;2252.80;;;;;;5073942;28;20074;-62
2023/02/23 06:36:36;;;;;;;48.15;35.33;;;205.70;2252.80;;;;;;5073847;28;20016;-63
2023/02/23 06:39:03;;;;;;;282.65;179.13;;;205.70;2252.80;;;;;;5073865;28;20035;-62
2023/02/23 06:41:30;;;;;;;470.27;333.40;;;205.70;2252.80;;;;;;5074000;28;20024;-62
2023/02/23 06:43:56;;;;;;;91.85;61.50;;;205.70;2252.80;;;;;;5073468;28;20037;-63
2023/02/23 06:46:21;;;;;;;144.80;103.65;;;230.40;2252.80;;;;;;5073439;28;20044;-61
2023/02/23 06:48:47;;;;;;;119.78;81.47;;;230.40;2252.80;;;;;;5042864;28;20489;-63
2023/02/23 06:51:13;;;;;;;84.53;51.17;;;230.50;2252.80;;;;;;5040625;28;20021;-63
2023/02/23 06:53:39;;;;;;;64.85;42.83;;;205.70;2252.80;;;;;;5043567;28;20104;-62
2023/02/23 06:56:07;;;;;;;41.92;29.08;;;205.70;2252.80;;;;;;5042629;28;20474;-62
2023/02/23 06:58:33;;;;;;;45.03;31.10;;;205.70;2252.80;;;;;;5042818;28;20025;-62
2023/02/23 07:00:59;;;;;;;29.73;20.67;;;205.60;2252.80;;;;;;5041064;28;20025;-61
2023/02/23 07:03:25;;;;;;;29.88;22.63;;;205.20;2252.80;;;;;;5042477;28;20021;-63
2023/02/23 07:05:51;;;;;;;28.08;19.50;;;205.20;2252.80;;;;;;5037233;28;20029;-63
2023/02/23 07:08:17;;;;;;;27.38;19.27;;;205.40;2252.80;;;;;;5033232;28;20026;-62
2023/02/23 07:10:43;;;;;;;38.53;25.63;;;205.50;2252.80;;;;;;5033174;28;20029;-62
2023/02/23 07:13:11;;;;;;;30.88;20.70;;;230.40;2252.80;;;;;;5033249;28;20034;-63
2023/02/23 07:15:38;;;;;;;28.48;21.33;;;230.40;2252.80;;;;;;5033180;28;20040;-63
2023/02/23 07:18:04;;;;;;;28.95;23.50;;;230.60;2252.80;;;;;;5033042;28;20053;-63
2023/02/23 07:20:30;;;;;;;43.17;28.73;;;230.90;2252.80;;;;;;5033244;28;20064;-63
2023/02/23 07:22:56;;;;;;;28.55;21.05;;;231.10;2252.80;;;;;;5033058;28;20033;-63
2023/02/23 07:25:22;;;;;;;28.02;21.30;;;231.00;2252.80;;;;;;5033033;28;20041;-63
2023/02/23 07:27:48;;;;;;;30.60;21.55;;;230.80;2252.80;;;;;;5033447;28;20036;-62
2023/02/23 07:30:14;;;;;;;29.00;21.88;;;230.60;2252.80;;;;;;5032089;28;20132;-62
2023/02/23 07:32:40;;;;;;;30.85;25.10;;;230.60;2252.80;;;;;;5033205;28;20025;-61
2023/02/23 07:35:06;;;;;;;35.75;24.90;;;230.70;2252.80;;;;;;5032759;28;20026;-62
2023/02/23 07:37:32;;;;;;;37.47;27.13;;;231.00;2252.80;;;;;;5014863;28;20133;-64
2023/02/23 07:39:58;;;;;;;40.60;30.77;;;256.20;2252.80;;;;;;5033006;28;20087;-63
2023/02/23 07:42:25;;;;;;;37.08;28.70;;;307.30;2304.00;;;;;;5032619;28;20421;-63
2023/02/23 07:44:51;;;;;;;30.23;23.95;;;333.00;2329.60;;;;;;5032362;28;20044;-63
2023/02/23 07:47:17;;;;;;;32.92;26.13;;;333.60;2329.60;;;;;;5032560;28;20371;-64
2023/02/23 07:49:42;;;;;;;31.13;24.27;;;333.40;2329.60;;;;;;5032325;28;20450;-63
2023/02/23 07:52:08;;;;;;;39.25;26.35;;;308.10;2304.00;;;;;;5032492;28;20022;-62
2023/02/23 07:54:34;;;;;;;36.65;28.02;;;307.60;2304.00;;;;;;5032605;28;20022;-63
2023/02/23 07:56:59;;;;;;;33.63;27.05;;;307.30;2304.00;;;;;;5032582;28;20017;-63
2023/02/23 07:59:25;;;;;;;41.40;29.33;;;282.40;2278.40;;;;;;5032162;28;20108;-63
2023/02/23 08:01:51;;;;;;;36.72;27.15;;;307.40;2304.00;;;;;;5032192;28;20064;-63
2023/02/23 08:04:17;;;;;;;37.80;28.63;;;332.80;2329.60;;;;;;5032045;28;20041;-63
2023/02/23 08:06:43;;;;;;;38.20;28.50;;;333.60;2329.60;;;;;;5032209;28;20022;-64
2023/02/23 08:09:10;;;;;;;40.92;29.33;;;384.40;2329.60;;;;;;5032539;28;20051;-64
2023/02/23 08:11:36;;;;;;;40.97;29.38;;;384.90;2176.00;;;;;;5038974;28;20017;-63
2023/02/23 08:14:02;;;;;;;397.65;272.25;;;435.40;2073.60;;;;;;5041481;28;20086;-63
2023/02/23 08:16:29;;;;;;;120.18;80.97;;;461.60;1945.60;;;;;;5039846;28;20026;-64
2023/02/23 08:18:59;;;;;;;1126.57;773.13;;;512.30;1792.00;;;;;;5035807;28;20075;-64
2023/02/23 08:21:28;;;;;;;75.80;60.58;;;537.80;1715.20;;;;;;5034192;28;20116;-64
2023/02/23 08:23:54;;;;;;;59.17;47.30;;;563.40;1664.00;;;;;;5031732;28;20049;-63
2023/02/23 08:26:20;;;;;;;54.42;48.03;;;538.00;1664.00;;;;;;5041611;28;20415;-64
2023/02/23 08:28:46;;;;;;;56.20;50.05;;;538.10;1664.00;;;;;;5038842;28;20021;-63
2023/02/23 08:31:13;;;;;;;60.40;52.35;;;538.00;1664.00;;;;;;5040557;28;20705;-62
2023/02/23 08:33:39;;;;;;;57.63;51.40;;;537.90;1689.60;;;;;;5039623;28;20029;-63
2023/02/23 08:36:08;;;;;;;65.00;56.47;;;512.90;1664.00;;;;;;5041438;28;20036;-64
2023/02/23 08:38:37;;;;;;;65.53;58.22;;;538.50;1638.40;;;;;;5040371;28;20020;-64
2023/02/23 08:41:04;;;;;;;67.75;60.40;;;563.50;1612.80;;;;;;5039005;28;20078;-63
2023/02/23 08:43:30;;;;;;;61.40;54.92;;;563.60;1612.80;;;;;;5040657;28;20025;-63
2023/02/23 08:45:56;;;;;;;71.20;63.78;;;538.50;1612.80;;;;;;5040410;28;20484;-64
2023/02/23 08:48:23;;;;;;;77.03;68.20;;;588.80;1587.20;;;;;;5039125;28;20013;-63
2023/02/23 08:50:49;;;;;;;73.57;64.65;;;614.40;1510.40;;;;;;5040493;28;20020;-64
2023/02/23 08:53:16;;;;;;;74.85;65.00;;;538.50;1587.20;;;;;;5040058;28;20024;-63
2023/02/23 08:55:41;;;;;;;70.72;63.03;;;538.50;1587.20;;;;;;5038677;28;20021;-63
2023/02/23 08:58:09;;;;;;;79.32;66.05;;;512.30;1664.00;;;;;;5034617;28;20021;-63
2023/02/23 09:00:36;;;;;;;74.63;62.05;;;487.00;1715.20;;;;;;5033933;28;20492;-65
2023/02/23 09:03:04;;;;;;;72.40;59.58;;;461.40;1792.00;;;;;;5035801;28;20028;-63
2023/02/23 09:05:31;;;;;;;66.82;56.63;;;486.70;1766.40;;;;;;5040109;28;20082;-64
2023/02/23 09:07:57;;;;;;;66.75;53.47;;;537.90;1664.00;;;;;;5040203;28;20045;-63
2023/02/23 09:10:26;;;;;;;62.45;51.85;;;537.90;1638.40;;;;;;5038638;28;20060;-64
2023/02/23 09:12:52;;;;;;;65.60;57.47;;;538.00;1612.80;;;;;;5039757;28;20108;-64
2023/02/23 09:15:18;;;;;;;66.72;57.33;;;563.70;1587.20;;;;;;5037973;28;20400;-63
2023/02/23 09:17:46;;;;;;;61.80;51.25;;;589.70;1484.80;;;;;;5043811;28;20027;-65
2023/02/23 09:20:14;;;;;;;65.10;54.17;;;589.40;1510.40;;;;;;5038768;28;20104;-64
2023/02/23 09:22:44;;;;;;;48.75;43.35;;;614.90;1459.20;;;;;;5038248;28;20024;-64
2023/02/23 09:25:14;;;;;;;57.33;48.42;;;614.70;1459.20;;;;;;5040031;28;20033;-65
2023/02/23 09:27:39;;;;;;;78.40;65.93;;;589.60;1484.80;;;;;;5038590;28;20092;-65
2023/02/23 09:30:05;;;;;;;52.80;47.05;;;614.60;1459.20;;;;;;5039559;28;20128;-63
2023/02/23 09:32:31;;;;;;;54.35;48.67;;;563.70;1536.00;;;;;;5040059;28;20040;-65
2023/02/23 09:34:57;;;;;;;54.92;46.25;;;563.60;1561.60;;;;;;5050770;28;20463;-64
2023/02/23 09:37:23;;;;;;;48.72;37.88;;;538.40;1561.60;;;;;;5050542;28;20385;-64
2023/02/23 09:39:49;;;;;;;58.83;46.90;;;512.20;1612.80;;;;;;5050867;28;20040;-64
2023/02/23 09:42:35;;;;;;;53.35;45.17;;;486.50;1715.20;;;;;;5050365;28;20029;-63
2023/02/23 09:45:10;;;;;;;48.10;40.38;;;461.50;1740.80;;;;;;5050254;28;20037;-64
2023/02/23 09:47:45;;;;;;;44.85;37.13;;;460.80;1792.00;;;;;;5050254;28;20479;-63
2023/02/23 09:50:30;;;;;;;57.05;41.20;;;435.60;1843.20;;;;;;5044070;28;20491;-63
2023/02/23 09:53:22;;;;;;;56.28;38.28;;;435.90;1817.60;;;;;;5036018;28;20028;-64
2023/02/23 09:55:50;;;;;;;59.78;42.60;;;435.30;1868.80;;;;;;5031485;28;20031;-63
2023/02/23 09:58:26;;;;;;;49.33;42.13;;;435.20;1894.40;;;;;;5032588;28;20025;-64
2023/02/23 10:01:10;;;;;;;64.55;42.63;;;410.20;1920.00;;;;;;5030397;28;20034;-62
2023/02/23 10:03:38;;;;;;;;;;;410.20;1945.60;;;;;;5032950;28;20044;-63
2023/02/23 10:06:12;;;;;;;42.20;34.50;;;409.80;1971.20;;;;;;5035307;28;19970;-63
2023/02/23 10:09:10;;;;;;;46.55;36.42;;;409.80;1971.20;;;;;;5041340;28;20017;-63
2023/02/23 10:11:41;;;;;;;52.90;37.97;;;409.70;1996.80;;;;;;4967101;28;20046;-63
2023/02/23 10:14:36;;;;;;;86.65;57.92;;;410.00;1971.20;;;;;;4972431;28;20034;-64
2023/02/23 10:17:23;;;;;;;57.80;44.25;;;410.00;1971.20;;;;;;4968950;28;20463;-63
2023/02/23 10:20:19;;;;;;;47.47;35.67;;;410.30;1945.60;;;;;;4966907;28;20480;-62
2023/02/23 10:22:48;;;;;;;65.40;45.28;;;409.80;1996.80;;;;;;4959510;28;20384;-63
2023/02/23 10:25:19;;;;;;;38.00;29.48;;;410.20;1996.80;;;;;;4968101;28;20035;-62
2023/02/23 10:27:50;;;;;;;41.22;28.45;;;409.80;1971.20;;;;;;4968205;28;20031;-62
2023/02/23 10:30:27;;;;;;;42.83;32.08;;;410.00;1971.20;;;;;;4967594;28;20058;-61
2023/02/23 10:33:21;;;;;;;33.20;27.45;;;409.80;1996.80;;;;;;4968195;28;20023;-63
2023/02/23 10:35:49;;;;;;;36.35;30.73;;;410.00;1996.80;;;;;;4966928;28;20051;-63
2023/02/23 10:38:17;;;;;;;29.38;22.75;;;410.20;1971.20;;;;;;4969352;28;20031;-62
2023/02/23 10:40:53;;;;;;;30.88;22.65;;;410.40;1971.20;;;;;;4969191;28;20537;-63
2023/02/23 10:43:19;;;;;;;29.58;20.75;;;409.90;1996.80;;;;;;4966657;28;20485;-61
2023/02/23 10:45:50;;;;;;;25.95;19.30;;;410.20;1971.20;;;;;;4982335;28;20172;-62
2023/02/23 10:48:22;;;;;;;27.65;19.85;;;410.50;1920.00;;;;;;5037279;28;20064;-62
2023/02/23 10:50:50;;;;;;;31.10;21.05;;;435.20;1945.60;;;;;;5056995;28;20472;-61
2023/02/23 10:53:25;;;;;;;22.63;16.80;;;435.30;1920.00;;;;;;5059210;28;20026;-62
2023/02/23 10:56:18;;;;;;;28.38;21.02;;;410.40;1920.00;;;;;;5058212;28;20036;-62
2023/02/23 10:58:55;;;;;;;25.43;16.27;;;435.20;1920.00;;;;;;5055727;28;20029;-62
2023/02/23 11:01:43;;;;;;;21.67;17.40;;;435.40;1920.00;;;;;;5057759;28;20032;-61
2023/02/23 11:04:30;;;;;;;20.17;15.80;;;435.30;1894.40;;;;;;5052142;28;20553;-63
2023/02/23 11:07:15;;;;;;;20.92;17.52;;;435.40;1894.40;;;;;;5059968;28;20021;-63
2023/02/23 11:09:41;;;;;;;21.35;14.45;;;435.50;1868.80;;;;;;5060143;28;20094;-64
2023/02/23 11:12:21;;;;;;;22.45;15.70;;;435.50;1868.80;;;;;;5061289;28;20020;-63
2023/02/23 11:14:52;;;;;;;22.27;15.82;;;435.40;1868.80;;;;;;5061519;28;20059;-63
2023/02/23 11:17:35;;;;;;;26.65;19.55;;;435.60;1868.80;;;;;;5059349;28;20029;-63
2023/02/23 11:20:17;;;;;;;18.85;14.27;;;435.60;1868.80;;;;;;5061611;28;20021;-64
2023/02/23 11:22:43;;;;;;;26.35;17.65;;;435.80;1868.80;;;;;;5061348;28;20078;-63
2023/02/23 11:25:30;;;;;;;20.95;14.07;;;435.70;1868.80;;;;;;5061366;28;20043;-62
2023/02/23 11:27:57;;;;;;;21.65;18.17;;;435.20;1894.40;;;;;;5058409;28;20027;-62
2023/02/23 11:30:29;;;;;;;27.02;16.73;;;435.20;1920.00;;;;;;5058369;28;20028;-63
2023/02/23 11:32:58;;;;;;;16.30;11.68;;;435.40;1894.40;;;;;;5057911;28;20463;-62
2023/02/23 11:35:26;;;;;;;16.08;11.68;;;435.20;1920.00;;;;;;5058151;28;20151;-62
2023/02/23 11:37:52;;;;;;;19.75;14.27;;;435.30;1894.40;;;;;;5058275;28;20490;-62
2023/02/23 11:40:27;;;;;;;24.00;17.40;;;435.50;1868.80;;;;;;5059336;28;20055;-63
2023/02/23 11:43:05;;;;;;;18.83;13.90;;;435.50;1920.00;;;;;;5057260;28;20021;-62
2023/02/23 11:45:36;;;;;;;27.38;16.83;;;435.60;1868.80;;;;;;5052236;28;20408;-62
2023/02/23 11:48:03;;;;;;;23.02;15.50;;;435.60;1894.40;;;;;;5038897;28;20541;-63
2023/02/23 11:50:34;;;;;;;22.67;15.88;;;435.60;1894.40;;;;;;5039903;28;20476;-62
2023/02/23 11:53:06;;;;;;;17.95;12.45;;;435.50;1894.40;;;;;;5038864;28;20491;-62
2023/02/23 11:55:35;;;;;;;21.60;13.82;;;435.60;1868.80;;;;;;5034613;28;20033;-62
2023/02/23 11:58:08;;;;;;;23.95;15.38;;;435.30;1894.40;;;;;;5034909;28;20387;-62
2023/02/23 12:00:34;;;;;;;19.30;13.52;;;435.30;1920.00;;;;;;5037968;28;20030;-64
2023/02/23 12:03:02;;;;;;;17.08;12.88;;;435.30;1894.40;;;;;;5036881;28;20021;-63
2023/02/23 12:05:31;;;;;;;29.35;11.80;;;435.20;1894.40;;;;;;5035377;28;20035;-62
2023/02/23 12:08:18;;;;;;;37.17;28.38;;;410.50;1894.40;;;;;;5035127;28;20037;-62
2023/02/23 12:10:53;;;;;;;19.75;13.98;;;435.40;1894.40;;;;;;5025168;28;20104;-63
2023/02/23 12:13:46;;;;;;;22.90;14.70;;;435.40;1894.40;;;;;;5034477;28;20060;-62
2023/02/23 12:16:21;;;;;;;24.20;15.80;;;435.50;1894.40;;;;;;5037068;28;20039;-63
2023/02/23 12:19:23;;;;;;;15.63;11.63;;;435.60;1868.80;;;;;;5037303;28;20029;-63
2023/02/23 12:22:12;;;;;;;22.70;13.48;;;435.60;1868.80;;;;;;5032926;28;20037;-63
2023/02/23 12:25:10;;;;;;;18.83;12.13;;;435.60;1868.80;;;;;;5035583;28;20040;-62
2023/02/23 12:27:52;;;;;;;63.30;43.90;;;435.60;1868.80;;;;;;4947992;28;20031;-64
2023/02/23 12:30:36;;;;;;;50.28;30.90;;;435.80;1868.80;;;;;;4954313;28;20041;-61
2023/02/23 12:33:37;;;;;;;20.40;15.20;;;435.80;1868.80;;;;;;4957033;28;20030;-63
2023/02/23 12:36:41;;;;;;;22.55;18.02;;;435.90;1868.80;;;;;;4967511;28;20509;-64
2023/02/23 12:39:20;;;;;;;22.55;20.13;;;435.80;1868.80;;;;;;4964315;28;20485;-63
2023/02/23 12:42:04;;;;;;;33.83;24.02;;;435.90;1868.80;;;;;;4970292;28;20062;-63
2023/02/23 12:44:39;;;;;;;26.20;19.83;;;436.10;1843.20;;;;;;4968594;28;20057;-64
2023/02/23 12:47:34;;;;;;;43.30;22.65;;;435.90;1868.80;;;;;;5004663;28;20037;-64
2023/02/23 12:50:06;;;;;;;30.85;14.65;;;436.00;1843.20;;;;;;4979953;28;20140;-63
2023/02/23 12:52:37;;;;;;;16.20;12.00;;;435.90;1843.20;;;;;;4981032;28;20053;-63
2023/02/23 12:55:11;;;;;;;19.08;12.13;;;436.10;1843.20;;;;;;4981041;28;20058;-63
2023/02/23 12:57:45;;;;;;;17.40;13.27;;;436.00;1843.20;;;;;;4979599;28;20091;-62
2023/02/23 13:00:41;;;;;;;18.25;12.13;;;436.10;1843.20;;;;;;4976399;28;20177;-63
2023/02/23 13:03:30;;;;;;;19.38;13.35;;;435.90;1843.20;;;;;;4986559;28;20029;-63
2023/02/23 13:06:17;;;;;;;45.55;27.92;;;435.80;1843.20;;;;;;4987263;28;20046;-63
2023/02/23 13:08:43;;;;;;;16.45;11.38;;;435.90;1868.80;;;;;;4986943;28;20388;-63
2023/02/23 13:11:21;;;;;;;15.43;11.02;;;435.80;1868.80;;;;;;4986518;28;20041;-63
2023/02/23 13:13:55;;;;;;;19.10;11.63;;;436.00;1843.20;;;;;;5023180;28;20772;-64
2023/02/23 13:16:34;;;;;;;23.30;14.30;;;435.80;1843.20;;;;;;5026620;28;20361;-64
2023/02/23 13:19:20;;;;;;;29.85;22.67;;;435.80;1843.20;;;;;;5025521;28;20021;-63
2023/02/23 13:21:53;;;;;;;24.15;14.70;;;436.10;1843.20;;;;;;5026112;28;20037;-63
2023/02/23 13:24:35;;;;;;;;;;;436.10;1843.20;;;;;;5026135;28;20107;-64
2023/02/23 13:27:09;;;;;;;16.25;12.45;;;436.10;1817.60;;;;;;5045115;28;19999;-63
2023/02/23 13:29:40;;;;;;;25.58;17.33;;;435.80;1843.20;;;;;;5064777;28;20031;-63
2023/02/23 13:32:19;;;;;;;27.92;19.10;;;435.90;1843.20;;;;;;5055250;28;20033;-64
2023/02/23 13:34:51;;;;;;;22.70;13.52;;;435.90;1843.20;;;;;;5052719;28;20558;-64
2023/02/23 13:37:20;;;;;;;17.35;9.98;;;435.90;1843.20;;;;;;5051110;28;20032;-63
2023/02/23 13:40:05;;;;;;;14.05;10.52;;;435.80;1843.20;;;;;;5057293;28;20016;-63